Terminal Aerodrome Forecast
Issued by NWS Wilmington, OH

Current Version | Previous Version | Graphics & Text | Print | Product List | Glossary On
Versions: 1 2 3 4 5 6 7 8 9 10 11 12 13 14 15 16 17 18 19
000
FTUS41 KILN 280300 AAA
TAFDAY
TAF AMD
KDAY 280353Z 2804/2824 VRB03KT 5SM BR SKC
     FM281300 12005KT P6SM SCT250
     FM281800 14008KT P6SM BKN250=

USA.gov is the U.S. government's official web portal to all federal, state and local government web resources and services.